Time;durP1;ratioP1;P1;durP2;ratioP2;P2;SDS_P1;SDS_P2;PMS_P1;PMS_P2;Temp;Humidity;BMP_temperature;BMP_pressure;BME280_temperature;BME280_humidity;BME280_pressure;Samples;Min_cycle;Max_cycle;Signal;HPM_P1;HPM_P2
2022/11/28 00:01:22;;;;;;;19.58;17.58;;;6.30;99.90;;;;;;5096601;27;20470;-92
2022/11/28 00:03:49;;;;;;;19.27;17.17;;;6.30;99.90;;;;;;5110122;27;20136;-89
2022/11/28 00:06:15;;;;;;;21.13;18.88;;;6.30;99.90;;;;;;5127410;27;20122;-88
2022/11/28 00:08:41;;;;;;;20.05;17.98;;;6.30;99.90;;;;;;5139887;27;20041;-90
2022/11/28 00:11:08;;;;;;;19.15;17.08;;;6.30;99.90;;;;;;5100585;27;20404;-90
2022/11/28 00:13:35;;;;;;;19.40;17.40;;;6.30;99.90;;;;;;5135157;27;20079;-91
2022/11/28 00:16:03;;;;;;;17.35;15.57;;;6.30;99.90;;;;;;5107072;27;20067;-89
2022/11/28 00:18:35;;;;;;;17.92;16.10;;;6.30;99.90;;;;;;5111590;27;20038;-90
2022/11/28 00:21:07;;;;;;;17.38;15.68;;;6.30;99.90;;;;;;5127684;27;20071;-91
2022/11/28 00:23:34;;;;;;;18.42;15.65;;;6.30;99.90;;;;;;5116295;27;20103;-89
2022/11/28 00:26:14;;;;;;;17.30;15.52;;;6.30;99.90;;;;;;5078587;27;20039;-91
2022/11/28 00:28:40;;;;;;;18.88;16.95;;;6.20;99.90;;;;;;5117864;27;20046;-92
2022/11/28 00:31:10;;;;;;;20.85;18.60;;;6.30;99.90;;;;;;5116113;27;20043;-91
2022/11/28 00:33:36;;;;;;;;;;;6.30;99.90;;;;;;5125479;27;20043;-92
2022/11/28 00:36:04;;;;;;;17.90;16.10;;;6.30;99.90;;;;;;5125822;27;19935;-92
2022/11/28 00:38:30;;;;;;;17.35;15.57;;;6.30;99.90;;;;;;5112324;27;20131;-91
2022/11/28 00:41:12;;;;;;;16.42;14.70;;;6.30;99.90;;;;;;5108656;27;20047;-92
2022/11/28 00:43:39;;;;;;;17.73;14.82;;;6.40;99.90;;;;;;5112724;27;20043;-91
2022/11/28 00:46:06;;;;;;;17.52;15.77;;;6.40;99.90;;;;;;5124565;27;20035;-91
2022/11/28 00:48:35;;;;;;;16.02;14.32;;;6.40;99.90;;;;;;5096758;27;20110;-90
2022/11/28 00:51:21;;;;;;;18.20;16.33;;;6.40;99.90;;;;;;5142624;27;20051;-92
2022/11/28 00:53:49;;;;;;;17.58;15.07;;;6.40;99.90;;;;;;5117968;27;20041;-91
2022/11/28 00:56:22;;;;;;;16.60;14.82;;;6.40;99.90;;;;;;5120447;27;20908;-91
2022/11/28 00:58:48;;;;;;;17.10;15.30;;;6.40;99.90;;;;;;5119471;27;20050;-90
2022/11/28 01:01:25;;;;;;;19.20;17.20;;;6.40;99.90;;;;;;5141895;27;20099;-90
2022/11/28 01:03:53;;;;;;;17.92;15.02;;;6.40;99.90;;;;;;5139560;27;20561;-91
2022/11/28 01:06:25;;;;;;;18.48;16.52;;;6.40;99.90;;;;;;5112482;27;20295;-91
2022/11/28 01:08:52;;;;;;;17.25;15.57;;;6.40;99.90;;;;;;5108797;27;20035;-92
2022/11/28 01:11:18;;;;;;;17.52;15.82;;;6.40;99.90;;;;;;5095719;27;20095;-91
2022/11/28 01:13:44;;;;;;;17.40;14.80;;;6.40;99.90;;;;;;5080359;27;20047;-92
2022/11/28 01:16:47;;;;;;;18.63;15.75;;;6.40;99.90;;;;;;5121858;27;20539;-92
2022/11/28 01:19:14;;;;;;;17.65;15.30;;;6.40;99.90;;;;;;5124228;27;20064;-91
2022/11/28 01:21:39;;;;;;;17.02;15.07;;;6.50;99.90;;;;;;5109714;27;20039;-89
2022/11/28 01:24:05;;;;;;;16.38;14.50;;;6.50;99.90;;;;;;5104838;27;20051;-91
2022/11/28 01:26:32;;;;;;;15.57;14.07;;;6.50;99.90;;;;;;5117017;27;20406;-91
2022/11/28 01:28:59;;;;;;;16.38;14.38;;;6.50;99.90;;;;;;5144470;27;20044;-91
2022/11/28 01:31:27;;;;;;;14.90;13.38;;;6.60;99.90;;;;;;5110988;27;20051;-91
2022/11/28 01:34:15;;;;;;;16.38;14.48;;;6.60;99.90;;;;;;5134237;27;20047;-92
2022/11/28 01:36:41;;;;;;;16.33;14.48;;;6.70;99.90;;;;;;5090962;27;20473;-92
2022/11/28 01:39:07;;;;;;;18.38;15.65;;;6.70;99.90;;;;;;5109405;27;20062;-90
2022/11/28 01:41:35;;;;;;;19.70;17.27;;;6.70;99.90;;;;;;5145799;27;20047;-91
2022/11/28 01:44:12;;;;;;;17.30;15.50;;;6.70;99.90;;;;;;5096882;27;20095;-92
2022/11/28 01:46:41;;;;;;;19.25;16.25;;;6.70;99.90;;;;;;5111401;27;20043;-91
2022/11/28 01:49:29;;;;;;;21.00;17.37;;;6.60;99.90;;;;;;5109738;27;20413;-92
2022/11/28 01:52:00;;;;;;;17.33;15.38;;;6.70;99.90;;;;;;5123147;27;20035;-91
2022/11/28 01:54:27;;;;;;;21.30;16.67;;;6.70;99.90;;;;;;5113795;27;20671;-90
2022/11/28 01:57:01;;;;;;;18.65;16.63;;;6.70;99.90;;;;;;5115427;27;20130;-91
2022/11/28 01:59:33;;;;;;;18.73;16.75;;;6.70;99.90;;;;;;5105230;27;20047;-92
2022/11/28 02:01:59;;;;;;;19.92;17.33;;;6.60;99.90;;;;;;5143000;27;20483;-92
2022/11/28 02:04:26;;;;;;;19.92;17.67;;;6.70;99.90;;;;;;5113706;27;20074;-91
2022/11/28 02:06:56;;;;;;;20.80;17.13;;;6.70;99.90;;;;;;5090842;27;20042;-90
2022/11/28 02:09:25;;;;;;;19.73;17.70;;;6.70;99.90;;;;;;5115448;27;20434;-90
2022/11/28 02:12:10;;;;;;;19.13;17.17;;;6.70;99.90;;;;;;5096957;27;20118;-90
2022/11/28 02:15:01;;;;;;;19.77;17.63;;;6.70;99.90;;;;;;5109048;27;20038;-90
2022/11/28 02:17:59;;;;;;;20.05;17.95;;;6.70;99.90;;;;;;5111293;27;20040;-90
2022/11/28 02:20:31;;;;;;;19.45;17.35;;;6.70;99.90;;;;;;5121746;27;20039;-90
2022/11/28 02:23:08;;;;;;;19.20;17.30;;;6.80;99.90;;;;;;5099834;27;20374;-90
2022/11/28 02:25:37;;;;;;;18.45;16.50;;;6.70;99.90;;;;;;5141120;27;20050;-90
2022/11/28 02:28:21;;;;;;;19.30;17.23;;;6.70;99.90;;;;;;5109570;27;20044;-92
2022/11/28 02:31:19;;;;;;;19.17;17.00;;;6.80;99.90;;;;;;5114670;27;20181;-91
2022/11/28 02:33:52;;;;;;;18.35;16.48;;;6.80;99.90;;;;;;5137457;27;20042;-91
2022/11/28 02:36:57;;;;;;;22.23;19.88;;;6.80;99.90;;;;;;5117681;27;20065;-92
2022/11/28 02:40:02;;;;;;;19.25;17.25;;;6.80;99.90;;;;;;5113095;27;20094;-91
2022/11/28 02:42:57;;;;;;;19.30;17.30;;;6.80;99.90;;;;;;5113464;27;20044;-89
2022/11/28 02:45:34;;;;;;;19.25;17.20;;;6.80;99.90;;;;;;5114496;27;20045;-91
2022/11/28 02:48:09;;;;;;;20.48;18.38;;;6.80;99.90;;;;;;5112560;27;20043;-89
2022/11/28 02:50:53;;;;;;;21.67;19.30;;;6.90;99.90;;;;;;5120266;27;20050;-91
2022/11/28 02:53:23;;;;;;;19.52;17.63;;;6.90;99.90;;;;;;5107130;27;20047;-90
2022/11/28 02:55:51;;;;;;;21.02;18.92;;;6.80;99.90;;;;;;5110472;27;20052;-91
2022/11/28 02:58:19;;;;;;;20.83;18.83;;;6.90;99.90;;;;;;5101587;27;20078;-90
2022/11/28 03:00:48;;;;;;;21.83;19.63;;;6.90;99.90;;;;;;5090610;27;20046;-90
2022/11/28 03:03:38;;;;;;;23.35;21.00;;;6.90;99.90;;;;;;5121087;27;20046;-90
2022/11/28 03:06:16;;;;;;;23.38;21.05;;;6.90;99.90;;;;;;5108596;27;20047;-91
2022/11/28 03:09:01;;;;;;;23.70;21.30;;;6.90;99.90;;;;;;5128710;27;20551;-91
2022/11/28 03:11:57;;;;;;;25.58;23.10;;;6.90;99.90;;;;;;5133119;27;20043;-88
2022/11/28 03:14:30;;;;;;;27.08;24.33;;;6.90;99.90;;;;;;5145735;27;20035;-88
2022/11/28 03:17:05;;;;;;;27.92;24.55;;;6.90;99.90;;;;;;5121654;27;20151;-82
2022/11/28 03:19:36;;;;;;;31.30;28.20;;;7.00;99.90;;;;;;5159563;27;20209;-85
2022/11/28 03:22:16;;;;;;;29.48;26.52;;;7.00;99.90;;;;;;5122552;27;20502;-82
2022/11/28 03:24:49;;;;;;;31.75;28.35;;;7.00;99.90;;;;;;5113155;27;20051;-88
2022/11/28 03:27:34;;;;;;;35.55;30.90;;;7.00;99.90;;;;;;5118733;27;20430;-89
2022/11/28 03:30:15;;;;;;;30.02;26.98;;;7.00;99.90;;;;;;5116812;27;20521;-87
2022/11/28 03:32:44;;;;;;;34.65;31.05;;;7.00;99.90;;;;;;5129224;27;20068;-88
2022/11/28 03:35:22;;;;;;;37.90;33.90;;;7.00;99.90;;;;;;5113978;27;20051;-89
2022/11/28 03:37:56;;;;;;;33.55;30.40;;;7.00;99.90;;;;;;5142450;27;20050;-89
2022/11/28 03:40:31;;;;;;;36.95;33.22;;;7.00;99.90;;;;;;5105623;27;20524;-88
2022/11/28 03:43:03;;;;;;;38.60;34.55;;;7.10;99.90;;;;;;5097946;27;20439;-86
2022/11/28 03:45:38;;;;;;;35.03;31.55;;;7.10;99.90;;;;;;5108101;27;20051;-89
2022/11/28 03:48:12;;;;;;;38.65;34.47;;;7.10;99.90;;;;;;5097238;27;20051;-88
2022/11/28 03:50:57;;;;;;;37.50;33.58;;;7.20;99.90;;;;;;5130569;27;20159;-89
2022/11/28 03:53:34;;;;;;;38.55;34.63;;;7.20;99.90;;;;;;5096293;27;20051;-83
2022/11/28 03:56:08;;;;;;;38.30;34.40;;;7.20;99.90;;;;;;5146302;27;20088;-88
2022/11/28 03:58:46;;;;;;;38.78;34.67;;;7.20;99.90;;;;;;5104333;27;20059;-89
2022/11/28 04:01:18;;;;;;;42.75;38.05;;;7.20;99.90;;;;;;5110918;27;20051;-88
2022/11/28 04:04:02;;;;;;;37.88;34.13;;;7.20;99.90;;;;;;5135835;27;20557;-87
2022/11/28 04:06:47;;;;;;;40.78;36.47;;;7.20;99.90;;;;;;5104777;27;20078;-88
2022/11/28 04:09:17;;;;;;;41.10;36.97;;;7.20;99.90;;;;;;5104353;27;20330;-88
2022/11/28 04:11:46;;;;;;;;;;;7.30;99.90;;;;;;5135553;27;20058;-87
2022/11/28 04:14:28;;;;;;;44.08;39.60;;;7.20;99.90;;;;;;5140502;27;20281;-88
2022/11/28 04:17:06;;;;;;;44.00;39.45;;;7.30;99.90;;;;;;5109542;27;20131;-89
2022/11/28 04:19:53;;;;;;;43.17;38.80;;;7.30;99.90;;;;;;5101371;27;20043;-85
2022/11/28 04:22:21;;;;;;;44.92;40.38;;;7.30;99.90;;;;;;5139329;27;20716;-87
2022/11/28 04:25:18;;;;;;;45.58;41.08;;;7.20;99.90;;;;;;5100695;28;20043;-88
2022/11/28 04:28:01;;;;;;;46.03;41.25;;;7.30;99.90;;;;;;5107149;27;20047;-88
2022/11/28 04:30:27;;;;;;;49.50;44.50;;;7.30;99.90;;;;;;5133145;27;20039;-88
2022/11/28 04:33:00;;;;;;;48.10;42.92;;;7.40;99.90;;;;;;5110661;27;20105;-90
2022/11/28 04:35:32;;;;;;;50.05;44.83;;;7.30;99.90;;;;;;5111888;27;20035;-88
2022/11/28 04:38:00;;;;;;;46.42;41.88;;;7.30;99.90;;;;;;5105538;27;20046;-89
2022/11/28 04:40:29;;;;;;;50.45;45.15;;;7.40;99.90;;;;;;5096855;27;20039;-87
2022/11/28 04:43:11;;;;;;;49.92;44.55;;;7.40;99.90;;;;;;5107058;27;20099;-88
2022/11/28 04:45:52;;;;;;;48.65;43.63;;;7.30;99.90;;;;;;5099958;28;20402;-88
2022/11/28 04:48:21;;;;;;;50.20;44.95;;;7.50;99.90;;;;;;5111220;27;20066;-88
2022/11/28 04:51:02;;;;;;;48.80;43.80;;;7.40;99.90;;;;;;5107313;27;20493;-88
2022/11/28 04:53:44;;;;;;;54.17;47.20;;;7.50;99.90;;;;;;5142696;27;20035;-89
2022/11/28 04:56:25;;;;;;;57.92;49.72;;;7.40;99.90;;;;;;5111764;27;20054;-88
2022/11/28 04:58:51;;;;;;;57.40;49.35;;;7.50;99.90;;;;;;5098436;27;20051;-88
2022/11/28 05:01:24;;;;;;;48.63;43.95;;;7.50;99.90;;;;;;5117807;27;20035;-88
2022/11/28 05:03:51;;;;;;;50.85;45.55;;;7.50;99.90;;;;;;5105991;27;20363;-87
2022/11/28 05:06:32;;;;;;;49.55;44.65;;;7.50;99.90;;;;;;5128156;27;20038;-87
2022/11/28 05:09:04;;;;;;;51.35;46.05;;;7.50;99.90;;;;;;5130786;27;20051;-88
2022/11/28 05:11:31;;;;;;;53.00;47.75;;;7.50;99.90;;;;;;5108639;27;20036;-88
2022/11/28 05:13:57;;;;;;;53.40;47.92;;;7.50;99.90;;;;;;5087670;27;20040;-89
2022/11/28 05:16:23;;;;;;;51.58;46.20;;;7.50;99.90;;;;;;5118915;27;20093;-90
2022/11/28 05:18:49;;;;;;;51.75;46.15;;;7.50;99.90;;;;;;5101795;27;20505;-89
2022/11/28 05:21:15;;;;;;;52.50;46.85;;;7.50;99.90;;;;;;5108211;27;20071;-89
2022/11/28 05:23:43;;;;;;;51.28;46.15;;;7.60;99.90;;;;;;5107984;27;20469;-89
2022/11/28 05:26:31;;;;;;;53.05;47.42;;;7.60;99.90;;;;;;5126736;27;20330;-89
2022/11/28 05:28:57;;;;;;;44.22;39.95;;;7.60;99.90;;;;;;5111158;27;20176;-82
2022/11/28 05:31:23;;;;;;;46.55;41.83;;;7.60;99.90;;;;;;5072806;28;20391;-81
2022/11/28 05:33:49;;;;;;;41.80;37.58;;;7.60;99.90;;;;;;5109639;27;20066;-90
2022/11/28 05:36:16;;;;;;;42.60;38.28;;;7.60;99.90;;;;;;5108884;27;20042;-90
2022/11/28 05:38:43;;;;;;;44.60;39.95;;;7.70;99.90;;;;;;5133864;27;20082;-90
2022/11/28 05:41:16;;;;;;;43.92;39.45;;;7.70;99.90;;;;;;5100607;27;20049;-88
2022/11/28 05:43:42;;;;;;;39.13;35.35;;;7.70;99.90;;;;;;5100065;28;20047;-89
2022/11/28 05:46:10;;;;;;;42.90;38.50;;;7.70;99.90;;;;;;5097419;27;20039;-90
2022/11/28 05:49:14;;;;;;;42.42;37.60;;;7.70;99.90;;;;;;5122907;27;20051;-90
2022/11/28 05:51:44;;;;;;;39.15;35.10;;;7.70;99.90;;;;;;5093538;28;20047;-90
2022/11/28 05:54:10;;;;;;;39.17;35.38;;;7.70;99.90;;;;;;5094871;27;20071;-90
2022/11/28 05:56:36;;;;;;;42.13;37.80;;;7.70;99.90;;;;;;5100646;27;20070;-89
2022/11/28 05:59:05;;;;;;;40.40;36.33;;;7.70;99.90;;;;;;5100309;27;20044;-90
2022/11/28 06:01:30;;;;;;;41.00;36.90;;;7.70;99.90;;;;;;5113234;27;20103;-90
2022/11/28 06:03:59;;;;;;;39.92;35.92;;;7.70;99.90;;;;;;5117937;27;20111;-87
2022/11/28 06:06:27;;;;;;;41.50;37.35;;;7.80;99.90;;;;;;5100446;27;20077;-92
2022/11/28 06:08:57;;;;;;;38.58;34.88;;;7.80;99.90;;;;;;5116436;27;20109;-90
2022/11/28 06:11:24;;;;;;;40.90;37.00;;;7.70;99.90;;;;;;5111883;27;20042;-91
2022/11/28 06:13:51;;;;;;;37.45;33.75;;;7.80;99.90;;;;;;5114040;27;20039;-90
2022/11/28 06:16:19;;;;;;;45.33;40.38;;;7.80;99.90;;;;;;5097053;27;20349;-92
2022/11/28 06:18:56;;;;;;;38.15;34.45;;;7.70;99.90;;;;;;5144616;27;20525;-91
2022/11/28 06:21:22;;;;;;;40.05;35.97;;;7.80;99.90;;;;;;5141252;27;20494;-91
2022/11/28 06:23:49;;;;;;;41.83;37.65;;;7.80;99.90;;;;;;5093904;27;20361;-91
2022/11/28 06:26:18;;;;;;;43.15;38.78;;;7.80;99.90;;;;;;5113693;27;20173;-90
2022/11/28 06:28:44;;;;;;;42.00;37.90;;;7.80;99.90;;;;;;5111978;27;20111;-90
2022/11/28 06:31:12;;;;;;;45.40;40.63;;;7.80;99.90;;;;;;5076724;27;20114;-90
2022/11/28 06:33:38;;;;;;;47.63;42.42;;;7.80;99.90;;;;;;5111125;27;20042;-89
2022/11/28 06:36:05;;;;;;;42.50;37.97;;;7.70;99.90;;;;;;5116187;27;20057;-91
2022/11/28 06:38:32;;;;;;;40.22;36.15;;;7.80;99.90;;;;;;5114245;27;20517;-89
2022/11/28 06:41:00;;;;;;;42.00;37.80;;;7.80;99.90;;;;;;5113504;27;20053;-90
2022/11/28 06:43:26;;;;;;;44.03;39.70;;;7.80;99.90;;;;;;5098676;27;20047;-88
2022/11/28 06:46:01;;;;;;;42.28;38.13;;;7.80;99.90;;;;;;5134458;27;20047;-89
2022/11/28 06:48:27;;;;;;;44.05;39.55;;;7.80;99.90;;;;;;5111113;27;20054;-90
2022/11/28 06:50:53;;;;;;;46.58;41.83;;;7.80;99.90;;;;;;5112133;27;20039;-88
2022/11/28 06:53:22;;;;;;;45.67;41.05;;;7.80;99.90;;;;;;5101272;27;20505;-89
2022/11/28 06:55:48;;;;;;;42.83;38.55;;;7.80;99.90;;;;;;5132394;27;20078;-90
2022/11/28 06:58:14;;;;;;;43.55;38.97;;;7.80;99.90;;;;;;5102602;27;20134;-90
2022/11/28 07:00:40;;;;;;;42.28;38.10;;;7.70;99.90;;;;;;5118357;27;20046;-89
2022/11/28 07:03:05;;;;;;;44.03;39.38;;;7.80;99.90;;;;;;5089369;27;20498;-87
2022/11/28 07:05:31;;;;;;;43.38;38.90;;;7.80;99.90;;;;;;5103563;27;20172;-88
2022/11/28 07:08:00;;;;;;;42.03;37.78;;;7.80;99.90;;;;;;5118426;27;20049;-87
2022/11/28 07:10:27;;;;;;;40.33;36.15;;;7.80;99.90;;;;;;5102494;27;20044;-87
2022/11/28 07:12:54;;;;;;;42.08;38.00;;;7.80;99.90;;;;;;5105881;27;20564;-87
2022/11/28 07:15:24;;;;;;;44.08;39.38;;;7.80;99.90;;;;;;5087139;27;20042;-88
2022/11/28 07:17:50;;;;;;;41.78;37.33;;;7.80;99.90;;;;;;5133487;27;20116;-85
2022/11/28 07:20:16;;;;;;;43.53;38.88;;;7.80;99.90;;;;;;5119454;27;20052;-88
2022/11/28 07:22:43;;;;;;;38.10;34.20;;;7.80;99.90;;;;;;5101369;27;20043;-87
2022/11/28 07:25:10;;;;;;;39.55;35.58;;;7.80;99.90;;;;;;5135410;27;20051;-87
2022/11/28 07:27:35;;;;;;;36.83;33.22;;;7.80;99.90;;;;;;5120889;27;20058;-88
2022/11/28 07:30:01;;;;;;;36.38;32.67;;;7.80;99.90;;;;;;5105515;27;20047;-88
2022/11/28 07:32:45;;;;;;;37.10;33.17;;;7.80;99.90;;;;;;5121255;27;20039;-87
2022/11/28 07:35:11;;;;;;;33.85;30.42;;;7.80;99.90;;;;;;5117443;27;20366;-88
2022/11/28 07:37:37;;;;;;;35.60;32.15;;;7.80;99.90;;;;;;5109081;27;20067;-87
2022/11/28 07:40:04;;;;;;;35.75;31.90;;;7.90;99.90;;;;;;5102160;27;20438;-87
2022/11/28 07:42:29;;;;;;;38.30;34.13;;;7.80;99.90;;;;;;5104631;27;20093;-87
2022/11/28 07:44:55;;;;;;;33.72;30.25;;;7.80;99.90;;;;;;5125569;27;21034;-88
2022/11/28 07:47:21;;;;;;;34.15;30.55;;;7.90;99.90;;;;;;5098499;27;20047;-88
2022/11/28 07:49:47;;;;;;;35.38;31.88;;;7.90;99.90;;;;;;5094353;27;20055;-86
2022/11/28 07:52:13;;;;;;;37.05;32.83;;;7.90;99.90;;;;;;5098750;27;20047;-86
2022/11/28 07:54:39;;;;;;;35.53;30.98;;;7.80;99.90;;;;;;5105427;27;20043;-87
2022/11/28 07:57:05;;;;;;;34.72;31.23;;;7.80;99.90;;;;;;5108058;27;20039;-87
2022/11/28 07:59:32;;;;;;;32.63;29.42;;;7.90;99.90;;;;;;5102091;27;20103;-86
2022/11/28 08:02:04;;;;;;;35.65;32.05;;;7.90;99.90;;;;;;5108916;27;20035;-87
2022/11/28 08:04:32;;;;;;;31.95;28.67;;;7.90;99.90;;;;;;5107061;27;20096;-88
2022/11/28 08:06:59;;;;;;;35.17;31.58;;;7.80;99.90;;;;;;5109843;27;20533;-88
2022/11/28 08:09:25;;;;;;;32.15;28.85;;;7.80;99.90;;;;;;5121958;27;20085;-88
2022/11/28 08:11:51;;;;;;;29.63;26.83;;;7.90;99.90;;;;;;5093969;27;20070;-87
2022/11/28 08:14:17;;;;;;;28.92;26.23;;;7.90;99.90;;;;;;5134114;27;20089;-87
2022/11/28 08:16:46;;;;;;;29.80;26.83;;;7.90;99.90;;;;;;5087204;27;20469;-84
2022/11/28 08:19:12;;;;;;;33.22;29.70;;;7.80;99.90;;;;;;5119612;27;20131;-83
2022/11/28 08:21:38;;;;;;;28.10;25.42;;;7.90;99.90;;;;;;5124286;27;20118;-79
2022/11/28 08:24:06;;;;;;;27.75;25.05;;;7.90;99.90;;;;;;5129457;27;20569;-83
2022/11/28 08:26:33;;;;;;;28.50;25.70;;;7.90;99.90;;;;;;5105282;27;20055;-82
2022/11/28 08:29:01;;;;;;;28.27;25.45;;;7.90;99.90;;;;;;5106486;27;20062;-83
2022/11/28 08:31:31;;;;;;;28.20;25.40;;;7.90;99.90;;;;;;5129946;27;20035;-81
2022/11/28 08:33:59;;;;;;;26.40;23.80;;;7.90;99.90;;;;;;5101637;27;20034;-80
2022/11/28 08:36:25;;;;;;;27.20;24.35;;;7.90;99.90;;;;;;5114292;27;20716;-80
2022/11/28 08:38:51;;;;;;;27.42;24.70;;;7.90;99.90;;;;;;5152595;27;20122;-80
2022/11/28 08:41:20;;;;;;;25.00;22.50;;;7.90;99.90;;;;;;5084342;27;20512;-81
2022/11/28 08:43:48;;;;;;;26.33;23.63;;;7.90;99.90;;;;;;5132521;27;20043;-80
2022/11/28 08:46:19;;;;;;;27.10;24.30;;;7.90;99.90;;;;;;5103454;27;20051;-85
2022/11/28 08:48:46;;;;;;;27.08;24.15;;;7.90;99.90;;;;;;5115372;27;20108;-85
2022/11/28 08:51:14;;;;;;;27.63;24.73;;;7.90;99.90;;;;;;5112588;27;20151;-84
2022/11/28 08:53:41;;;;;;;26.17;23.48;;;7.90;99.90;;;;;;5130415;27;20050;-84
2022/11/28 08:56:07;;;;;;;23.38;21.00;;;7.90;99.90;;;;;;5126700;27;20501;-84
2022/11/28 08:58:33;;;;;;;24.17;21.67;;;7.90;99.90;;;;;;5127297;27;20055;-85
2022/11/28 09:01:02;;;;;;;25.05;22.52;;;7.90;99.90;;;;;;5119186;27;20486;-84
2022/11/28 09:03:31;;;;;;;26.38;23.45;;;7.90;99.90;;;;;;5110868;27;20067;-84
2022/11/28 09:06:03;;;;;;;24.42;21.85;;;7.90;99.90;;;;;;5092805;27;20040;-84
2022/11/28 09:08:29;;;;;;;23.45;21.05;;;7.90;99.90;;;;;;5084880;27;20394;-83
2022/11/28 09:10:55;;;;;;;25.13;22.42;;;7.90;99.90;;;;;;5118517;27;20047;-83
2022/11/28 09:13:21;;;;;;;24.20;21.75;;;7.90;99.90;;;;;;5105952;27;20427;-83
2022/11/28 09:15:48;;;;;;;26.33;22.63;;;7.90;99.90;;;;;;5122286;27;20046;-83
2022/11/28 09:18:14;;;;;;;21.83;19.73;;;7.90;99.90;;;;;;5112830;27;20067;-84
2022/11/28 09:20:41;;;;;;;21.98;19.83;;;7.90;99.90;;;;;;5114200;27;20296;-84
2022/11/28 09:23:07;;;;;;;25.20;22.23;;;8.00;99.90;;;;;;5114227;27;20589;-84
2022/11/28 09:25:35;;;;;;;23.10;20.58;;;7.90;99.90;;;;;;5101549;27;20066;-84
2022/11/28 09:28:00;;;;;;;21.48;19.23;;;8.00;99.90;;;;;;5098700;27;20047;-83
2022/11/28 09:30:27;;;;;;;22.05;19.88;;;8.00;99.90;;;;;;5120350;27;20296;-84
2022/11/28 09:32:53;;;;;;;22.42;20.13;;;7.90;99.90;;;;;;5096650;27;20035;-84
2022/11/28 09:35:18;;;;;;;22.15;19.80;;;8.00;99.90;;;;;;5087554;27;20085;-84
2022/11/28 09:37:44;;;;;;;21.73;19.52;;;8.00;99.90;;;;;;5091411;27;20088;-84
2022/11/28 09:40:16;;;;;;;21.98;19.77;;;8.00;99.90;;;;;;5099764;27;20507;-83
2022/11/28 09:42:43;;;;;;;22.15;19.92;;;8.00;99.90;;;;;;5121676;27;20059;-83
2022/11/28 09:45:19;;;;;;;21.83;19.58;;;8.00;99.90;;;;;;5138268;27;20632;-84
2022/11/28 09:47:52;;;;;;;21.25;19.05;;;8.00;99.90;;;;;;5124991;27;20065;-84
2022/11/28 09:50:39;;;;;;;23.63;21.20;;;8.00;99.90;;;;;;5152746;27;20062;-85
2022/11/28 09:53:20;;;;;;;20.90;18.83;;;8.10;99.90;;;;;;5118118;27;20133;-86
2022/11/28 09:56:03;;;;;;;21.60;19.50;;;8.00;99.90;;;;;;5123597;27;20482;-85
2022/11/28 09:59:02;;;;;;;24.52;22.02;;;8.10;99.90;;;;;;5101196;27;20047;-84
2022/11/28 10:02:03;;;;;;;28.33;23.67;;;8.10;99.90;;;;;;5096065;27;20407;-84
2022/11/28 10:04:57;;;;;;;23.13;20.88;;;8.10;99.90;;;;;;5091265;27;20057;-86
2022/11/28 10:07:39;;;;;;;21.65;19.58;;;8.10;99.90;;;;;;5106902;27;20043;-85
2022/11/28 10:10:22;;;;;;;22.25;19.95;;;8.10;99.90;;;;;;5115352;27;20575;-85
2022/11/28 10:12:59;;;;;;;28.60;24.35;;;8.10;99.90;;;;;;5118374;27;20054;-85
2022/11/28 10:15:45;;;;;;;23.02;20.83;;;8.10;99.90;;;;;;5097716;27;20047;-86
2022/11/28 10:18:30;;;;;;;24.05;21.65;;;8.10;99.90;;;;;;5099110;27;20527;-85
2022/11/28 10:21:01;;;;;;;23.60;21.10;;;8.20;99.90;;;;;;5120561;27;20422;-85
2022/11/28 10:23:41;;;;;;;24.02;21.52;;;8.20;99.90;;;;;;5100149;27;20484;-85
2022/11/28 10:26:38;;;;;;;26.45;23.63;;;8.20;99.90;;;;;;5105762;27;20055;-85
2022/11/28 10:29:21;;;;;;;25.13;22.50;;;8.20;99.90;;;;;;5123396;27;20047;-84
2022/11/28 10:31:49;;;;;;;22.00;19.90;;;8.20;99.90;;;;;;5099892;27;20047;-84
2022/11/28 10:34:31;;;;;;;22.45;20.33;;;8.20;99.90;;;;;;5124809;27;20058;-84
2022/11/28 10:36:56;;;;;;;22.75;20.45;;;8.30;99.90;;;;;;5116988;27;20050;-84
2022/11/28 10:39:24;;;;;;;25.33;22.77;;;8.30;99.90;;;;;;5103390;27;20043;-84
2022/11/28 10:42:11;;;;;;;33.33;25.52;;;8.30;99.90;;;;;;5114350;27;20558;-79
2022/11/28 10:44:54;;;;;;;22.45;20.20;;;8.30;99.90;;;;;;5123126;27;20069;-79
2022/11/28 10:47:42;;;;;;;24.38;21.77;;;8.30;99.90;;;;;;5143917;27;20039;-79
2022/11/28 10:50:37;;;;;;;23.30;20.58;;;8.30;99.90;;;;;;5100992;27;20096;-84
2022/11/28 10:53:22;;;;;;;21.88;19.67;;;8.40;99.90;;;;;;5107448;27;20085;-85
2022/11/28 10:56:17;;;;;;;23.35;20.92;;;8.30;99.90;;;;;;5102567;27;20526;-84
2022/11/28 10:58:57;;;;;;;20.83;18.73;;;8.40;99.90;;;;;;5117532;27;20043;-84
2022/11/28 11:01:30;;;;;;;23.13;20.83;;;8.40;99.90;;;;;;5097825;27;20035;-85
2022/11/28 11:03:55;;;;;;;24.08;21.52;;;8.40;99.90;;;;;;5121343;27;20055;-86
2022/11/28 11:06:25;;;;;;;23.20;20.80;;;8.50;99.90;;;;;;5109083;27;20094;-83
2022/11/28 11:08:51;;;;;;;22.10;19.92;;;8.50;99.90;;;;;;5150397;27;20393;-84
2022/11/28 11:11:27;;;;;;;21.73;19.52;;;8.50;99.90;;;;;;5101647;27;20063;-84
2022/11/28 11:14:05;;;;;;;25.00;22.40;;;8.50;99.90;;;;;;5135984;27;20047;-85
2022/11/28 11:16:55;;;;;;;20.58;18.63;;;8.50;99.90;;;;;;5116295;27;20047;-84
2022/11/28 11:19:53;;;;;;;22.70;20.27;;;8.50;99.90;;;;;;5122213;27;20054;-85
2022/11/28 11:22:27;;;;;;;26.17;22.88;;;8.50;99.90;;;;;;5102142;27;20059;-84
2022/11/28 11:25:13;;;;;;;25.77;23.10;;;8.60;99.90;;;;;;5131302;27;20292;-80
2022/11/28 11:27:48;;;;;;;23.52;21.23;;;8.60;99.90;;;;;;5115326;27;20173;-84
2022/11/28 11:30:33;;;;;;;24.05;21.67;;;8.70;99.90;;;;;;5097968;27;20144;-84
2022/11/28 11:33:01;;;;;;;25.25;22.52;;;8.60;99.90;;;;;;5106685;27;20067;-84
2022/11/28 11:35:43;;;;;;;22.23;20.05;;;8.60;99.90;;;;;;5089983;27;20512;-84
2022/11/28 11:38:26;;;;;;;23.05;20.70;;;8.70;99.90;;;;;;5108054;27;20047;-84
2022/11/28 11:40:52;;;;;;;31.40;24.77;;;8.60;99.90;;;;;;5122507;27;20288;-84
2022/11/28 11:43:32;;;;;;;25.00;22.10;;;8.70;99.90;;;;;;5125366;27;20043;-84
2022/11/28 11:46:14;;;;;;;31.50;24.48;;;8.70;99.90;;;;;;5125610;27;20130;-85
2022/11/28 11:48:45;;;;;;;23.63;21.20;;;8.60;99.90;;;;;;5124962;27;20054;-85
2022/11/28 11:51:31;;;;;;;22.80;20.50;;;8.70;99.90;;;;;;5121247;27;20421;-84
2022/11/28 11:54:05;;;;;;;27.75;24.20;;;8.60;99.90;;;;;;5113258;27;20047;-85
2022/11/28 11:56:35;;;;;;;21.10;19.00;;;8.70;99.90;;;;;;5101981;27;20417;-84
2022/11/28 11:59:08;;;;;;;22.95;20.63;;;8.70;99.90;;;;;;5113057;27;20349;-85
2022/11/28 12:01:36;;;;;;;22.70;20.33;;;8.70;99.90;;;;;;5148056;27;20130;-84
2022/11/28 12:04:13;;;;;;;28.05;23.92;;;8.70;99.90;;;;;;5095322;27;20050;-84
2022/11/28 12:06:49;;;;;;;32.95;26.27;;;8.70;99.90;;;;;;5120355;27;20062;-84
2022/11/28 12:09:30;;;;;;;25.83;23.10;;;8.70;99.90;;;;;;5107210;27;20051;-84
2022/11/28 12:12:04;;;;;;;27.45;24.33;;;8.70;99.90;;;;;;5128179;27;20178;-84
2022/11/28 12:14:39;;;;;;;34.80;28.67;;;8.70;99.90;;;;;;5095697;27;20099;-83
2022/11/28 12:17:33;;;;;;;25.98;22.92;;;8.70;99.90;;;;;;5096724;27;20043;-84
2022/11/28 12:20:24;;;;;;;24.67;22.17;;;8.70;99.90;;;;;;5096017;27;20464;-83
2022/11/28 12:23:05;;;;;;;24.92;22.42;;;8.70;99.90;;;;;;5146086;27;20047;-83
2022/11/28 12:26:03;;;;;;;26.70;23.58;;;8.70;99.90;;;;;;5111189;27;20044;-84
2022/11/28 12:28:41;;;;;;;45.30;29.13;;;8.70;99.90;;;;;;5106607;27;20344;-83
2022/11/28 12:31:16;;;;;;;28.95;22.55;;;8.70;99.90;;;;;;5113895;27;20528;-84
2022/11/28 12:34:00;;;;;;;25.02;21.65;;;8.70;99.90;;;;;;5113512;27;20475;-84
2022/11/28 12:36:42;;;;;;;25.75;21.05;;;8.80;99.90;;;;;;5112761;27;20509;-84
2022/11/28 12:39:24;;;;;;;20.23;18.25;;;8.70;99.90;;;;;;5117160;27;20615;-84
2022/11/28 12:42:02;;;;;;;20.63;18.52;;;8.80;99.90;;;;;;5106941;27;20035;-84
2022/11/28 12:44:27;;;;;;;23.00;20.58;;;8.80;99.90;;;;;;5121852;27;20062;-84
2022/11/28 12:47:31;;;;;;;20.95;18.83;;;8.70;99.90;;;;;;5148596;27;20047;-84
2022/11/28 12:50:20;;;;;;;20.17;18.17;;;8.80;99.90;;;;;;5101583;27;20047;-83
2022/11/28 12:53:24;;;;;;;23.77;20.40;;;8.80;99.90;;;;;;5114303;27;20565;-83
2022/11/28 12:55:58;;;;;;;22.45;20.15;;;8.80;99.90;;;;;;5109018;27;20054;-83
2022/11/28 12:58:32;;;;;;;19.85;17.67;;;8.80;99.90;;;;;;5111640;27;20124;-84
2022/11/28 13:01:23;;;;;;;22.88;20.45;;;8.80;99.90;;;;;;5125187;27;20043;-84
2022/11/28 13:03:55;;;;;;;;;;;8.80;99.90;;;;;;5127478;27;20351;-84
2022/11/28 13:06:35;;;;;;;19.60;17.60;;;8.70;99.90;;;;;;5121388;27;20369;-85
2022/11/28 13:09:22;;;;;;;21.48;19.23;;;8.60;99.90;;;;;;5093393;27;20055;-84
2022/11/28 13:11:57;;;;;;;20.83;18.55;;;8.80;99.90;;;;;;5122459;27;20063;-85